createdAt,value
2018-06-04T00:00:27.317Z,15.90
2018-06-04T00:01:27.320Z,16.50
2018-06-04T00:02:27.333Z,15.20
2018-06-04T00:03:27.345Z,16.00
2018-06-04T00:04:27.335Z,15.70
2018-06-04T00:05:27.349Z,15.50
2018-06-04T00:06:27.353Z,16.40
2018-06-04T00:07:27.354Z,16.70
2018-06-04T00:08:27.361Z,16.90
2018-06-04T00:09:27.369Z,16.80
2018-06-04T00:10:27.370Z,16.90
2018-06-04T00:11:27.373Z,16.30
2018-06-04T00:12:27.383Z,16.30
2018-06-04T00:13:27.387Z,15.80
2018-06-04T00:14:27.391Z,15.70
2018-06-04T00:15:27.401Z,16.00
2018-06-04T00:16:27.433Z,15.50
2018-06-04T00:17:27.421Z,16.80
2018-06-04T00:18:27.413Z,16.50
2018-06-04T00:19:27.426Z,15.40
2018-06-04T00:20:27.420Z,15.80
2018-06-04T00:21:27.438Z,17.20
2018-06-04T00:22:27.433Z,16.00
2018-06-04T00:23:27.444Z,16.90
2018-06-04T00:24:27.444Z,15.30
2018-06-04T00:25:27.454Z,17.10
2018-06-04T00:26:27.457Z,15.80
2018-06-04T00:27:27.463Z,16.70
2018-06-04T00:28:27.470Z,16.80
2018-06-04T00:29:27.470Z,16.10
2018-06-04T00:30:27.479Z,16.80
2018-06-04T00:31:27.488Z,15.90
2018-06-04T00:32:27.485Z,15.60
2018-06-04T00:33:27.489Z,16.50
2018-06-04T00:34:27.502Z,16.40
2018-06-04T00:35:27.507Z,16.60
2018-06-04T00:36:27.510Z,16.60
2018-06-04T00:37:27.530Z,16.80
2018-06-04T00:38:27.523Z,16.80
2018-06-04T00:39:27.527Z,15.60
2018-06-04T00:40:27.530Z,16.40
2018-06-04T00:41:27.534Z,16.40
2018-06-04T00:42:27.546Z,16.80
2018-06-04T00:43:27.553Z,17.10
2018-06-04T00:44:27.546Z,16.70
2018-06-04T00:45:27.562Z,16.40
2018-06-04T00:46:27.573Z,17.10
2018-06-04T00:47:27.581Z,17.50
2018-06-04T00:48:27.580Z,16.80
2018-06-04T00:49:27.587Z,16.90
2018-06-04T00:50:27.591Z,17.30
2018-06-04T00:51:27.592Z,17.60
2018-06-04T00:52:27.589Z,17.60
2018-06-04T00:53:27.600Z,18.90
2018-06-04T00:54:27.626Z,18.80
2018-06-04T00:55:27.621Z,18.90
2018-06-04T00:56:27.616Z,18.30
2018-06-04T00:57:27.621Z,18.00
2018-06-04T00:58:27.623Z,17.70
2018-06-04T00:59:27.634Z,19.50
2018-06-04T01:00:27.634Z,18.80
2018-06-04T01:01:27.642Z,19.20
2018-06-04T01:02:27.642Z,18.70
2018-06-04T01:03:27.652Z,19.20
2018-06-04T01:04:27.658Z,19.40
2018-06-04T01:05:27.656Z,19.60
2018-06-04T01:06:27.671Z,19.60
2018-06-04T01:07:27.667Z,19.30
2018-06-04T01:08:27.682Z,21.20
2018-06-04T01:09:27.685Z,20.50
2018-06-04T01:10:27.686Z,19.60
2018-06-04T01:11:27.694Z,19.90
2018-06-04T01:12:27.700Z,19.60
2018-06-04T01:13:27.704Z,20.30
2018-06-04T01:14:27.709Z,21.10
2018-06-04T01:15:27.713Z,21.40
2018-06-04T01:16:27.726Z,20.00
2018-06-04T01:17:27.725Z,20.40
2018-06-04T01:18:27.729Z,19.50
2018-06-04T01:19:27.736Z,20.50
2018-06-04T01:20:27.736Z,21.10
2018-06-04T01:21:27.749Z,20.30
2018-06-04T01:22:27.745Z,19.80
2018-06-04T01:23:27.758Z,21.60
2018-06-04T01:24:27.760Z,21.60
2018-06-04T01:25:27.768Z,19.70
2018-06-04T01:26:27.773Z,19.90
2018-06-04T01:27:27.777Z,21.00
2018-06-04T01:28:27.781Z,20.10
2018-06-04T01:29:27.778Z,21.00
2018-06-04T01:30:27.794Z,20.90
2018-06-04T01:31:27.791Z,22.00
2018-06-04T01:32:27.804Z,21.50
2018-06-04T01:33:27.802Z,22.00
2018-06-04T01:34:27.812Z,22.50
2018-06-04T01:35:27.819Z,22.40
2018-06-04T01:36:27.815Z,21.10
2018-06-04T01:37:27.818Z,22.60
2018-06-04T01:38:27.834Z,20.60
2018-06-04T01:39:27.842Z,21.70
2018-06-04T01:40:27.839Z,21.60
2018-06-04T01:41:27.844Z,21.80
2018-06-04T01:42:27.857Z,20.90
2018-06-04T01:43:27.856Z,20.50
2018-06-04T01:44:27.871Z,21.90
2018-06-04T01:45:27.865Z,21.20
2018-06-04T01:46:27.893Z,21.50
2018-06-04T01:47:27.878Z,22.20
2018-06-04T01:48:27.889Z,22.20
2018-06-04T01:49:27.881Z,21.30
2018-06-04T01:50:27.902Z,22.10
2018-06-04T01:51:27.896Z,22.70
2018-06-04T01:52:27.904Z,22.30
2018-06-04T01:53:27.910Z,22.40
2018-06-04T01:54:27.910Z,21.30
2018-06-04T01:55:27.919Z,21.40
2018-06-04T01:56:27.921Z,21.80
2018-06-04T01:57:27.931Z,21.80
2018-06-04T01:58:27.927Z,22.50
2018-06-04T01:59:27.952Z,21.60
2018-06-04T02:00:27.935Z,21.40
2018-06-04T02:01:27.940Z,22.50
2018-06-04T02:02:27.955Z,22.20
2018-06-04T02:03:27.952Z,21.90
2018-06-04T02:04:27.976Z,22.40
2018-06-04T02:05:27.964Z,22.30
2018-06-04T02:06:27.964Z,22.60
2018-06-04T02:07:27.978Z,21.60
2018-06-04T02:08:27.976Z,22.70
2018-06-04T02:09:27.980Z,22.70
2018-06-04T02:10:27.995Z,22.80
2018-06-04T02:11:27.992Z,21.90
2018-06-04T02:12:28.004Z,21.80
2018-06-04T02:13:28.002Z,22.30
2018-06-04T02:14:28.036Z,22.00
2018-06-04T02:15:28.019Z,22.00
2018-06-04T02:16:28.022Z,22.40
2018-06-04T02:17:28.033Z,22.30
2018-06-04T02:18:28.027Z,22.40
2018-06-04T02:19:28.036Z,21.70
2018-06-04T02:20:28.042Z,21.80
2018-06-04T02:21:28.047Z,22.20
2018-06-04T02:22:28.051Z,22.50
2018-06-04T02:23:28.052Z,22.60
2018-06-04T02:24:28.059Z,21.80
2018-06-04T02:25:28.062Z,22.50
2018-06-04T02:26:28.064Z,21.40
2018-06-04T02:27:28.081Z,22.00
2018-06-04T02:28:28.074Z,22.40
2018-06-04T02:29:28.090Z,22.80
2018-06-04T02:30:28.093Z,23.20
2018-06-04T02:31:28.101Z,23.20
2018-06-04T02:32:28.099Z,22.90
2018-06-04T02:33:28.111Z,22.90
2018-06-04T02:34:28.112Z,22.50
2018-06-04T02:35:28.117Z,22.30
2018-06-04T02:36:28.128Z,22.40
2018-06-04T02:37:28.134Z,22.10
2018-06-04T02:38:28.133Z,22.60
2018-06-04T02:39:28.131Z,22.90
2018-06-04T02:40:28.164Z,22.30
2018-06-04T02:41:28.147Z,22.60
2018-06-04T02:42:28.168Z,22.70
2018-06-04T02:43:28.154Z,22.30
2018-06-04T02:44:28.157Z,23.60
2018-06-04T02:45:28.171Z,24.60
2018-06-04T02:46:28.171Z,23.50
2018-06-04T02:47:28.207Z,24.00
2018-06-04T02:48:28.174Z,25.30
2018-06-04T02:49:28.177Z,24.80
2018-06-04T02:50:28.187Z,23.50
2018-06-04T02:51:28.194Z,23.90
2018-06-04T02:52:28.193Z,22.80
2018-06-04T02:53:28.200Z,22.60
2018-06-04T02:54:28.209Z,23.60
2018-06-04T02:55:28.205Z,23.40
2018-06-04T02:56:28.220Z,24.30
2018-06-04T02:57:28.225Z,23.20
2018-06-04T02:58:28.221Z,22.90
2018-06-04T02:59:28.228Z,24.10
2018-06-04T03:00:28.229Z,24.40
2018-06-04T03:01:28.236Z,24.10
2018-06-04T03:02:28.247Z,24.20
2018-06-04T03:03:28.253Z,23.60
2018-06-04T03:04:28.248Z,24.70
2018-06-04T03:05:28.253Z,24.10
2018-06-04T03:06:28.266Z,24.60
2018-06-04T03:07:28.268Z,24.70
2018-06-04T03:08:28.270Z,25.80
2018-06-04T03:09:28.278Z,25.80
2018-06-04T03:10:28.288Z,25.10
2018-06-04T03:11:28.285Z,24.90
2018-06-04T03:12:28.297Z,25.30
2018-06-04T03:13:28.296Z,24.10
2018-06-04T03:14:28.310Z,25.10
2018-06-04T03:15:28.306Z,25.10
2018-06-04T03:16:28.308Z,25.10
2018-06-04T03:17:28.319Z,25.60
2018-06-04T03:18:28.321Z,24.80
2018-06-04T03:19:28.336Z,25.30
2018-06-04T03:20:28.328Z,25.20
2018-06-04T03:21:28.346Z,24.70
2018-06-04T03:22:28.338Z,25.60
2018-06-04T03:23:28.348Z,25.50
2018-06-04T03:24:28.343Z,25.10
2018-06-04T03:25:28.353Z,25.60
2018-06-04T03:26:28.358Z,26.30
2018-06-04T03:27:28.363Z,25.90
2018-06-04T03:28:28.369Z,27.00
2018-06-04T03:29:28.368Z,26.60
2018-06-04T03:30:28.373Z,26.70
2018-06-04T03:31:28.408Z,26.10
2018-06-04T03:32:28.381Z,26.20
2018-06-04T03:33:28.388Z,27.10
2018-06-04T03:34:28.396Z,27.20
2018-06-04T03:35:28.397Z,26.10
2018-06-04T03:36:28.406Z,25.90
2018-06-04T03:37:28.406Z,25.90
2018-06-04T03:38:28.419Z,26.70
2018-06-04T03:39:28.413Z,26.70
2018-06-04T03:40:28.427Z,26.70
2018-06-04T03:41:28.425Z,26.00
2018-06-04T03:42:28.435Z,26.30
2018-06-04T03:43:28.436Z,26.40
2018-06-04T03:44:28.441Z,25.70
2018-06-04T03:45:28.455Z,25.50
2018-06-04T03:46:28.459Z,25.60
2018-06-04T03:47:28.461Z,26.80
2018-06-04T03:48:28.470Z,26.50
2018-06-04T03:49:28.470Z,25.10
2018-06-04T03:50:28.472Z,24.70
2018-06-04T03:51:28.479Z,26.00
2018-06-04T03:52:28.480Z,25.10
2018-06-04T03:53:28.491Z,25.10
2018-06-04T03:54:28.497Z,25.80
2018-06-04T03:55:28.500Z,25.10
2018-06-04T03:56:28.498Z,25.80
2018-06-04T03:57:28.507Z,25.50
2018-06-04T03:58:28.526Z,25.60
2018-06-04T03:59:28.517Z,25.50
2018-06-04T04:00:28.525Z,23.80
2018-06-04T04:01:28.530Z,25.30
2018-06-04T04:02:28.548Z,24.60
2018-06-04T04:03:28.545Z,25.00
2018-06-04T04:04:28.538Z,23.40
2018-06-04T04:05:28.551Z,24.40
2018-06-04T04:06:28.564Z,24.20
2018-06-04T04:07:28.562Z,23.30
2018-06-04T04:08:28.571Z,23.90
2018-06-04T04:09:28.590Z,22.40
2018-06-04T04:10:28.590Z,22.40
2018-06-04T04:11:28.576Z,22.90
2018-06-04T04:12:28.596Z,23.50
2018-06-04T04:13:28.599Z,22.60
2018-06-04T04:14:28.606Z,23.20
2018-06-04T04:15:28.604Z,23.10
2018-06-04T04:16:28.611Z,22.90
2018-06-04T04:17:28.610Z,23.00
2018-06-04T04:18:28.628Z,23.10
2018-06-04T04:19:28.630Z,22.80
2018-06-04T04:20:28.632Z,22.50
2018-06-04T04:21:28.640Z,22.50
2018-06-04T04:22:28.647Z,22.40
2018-06-04T04:23:28.649Z,22.20
2018-06-04T04:24:28.681Z,21.30
2018-06-04T04:25:28.671Z,21.00
2018-06-04T04:26:28.670Z,21.40
2018-06-04T04:27:28.681Z,22.30
2018-06-04T04:28:28.691Z,21.20
2018-06-04T04:29:28.700Z,21.50
2018-06-04T04:30:28.706Z,22.00
2018-06-04T04:31:28.721Z,21.30
2018-06-04T04:32:29.708Z,22.30
2018-06-04T04:33:28.728Z,22.00
2018-06-04T04:34:28.746Z,21.20
2018-06-04T04:35:28.755Z,22.50
2018-06-04T04:36:28.747Z,22.90
2018-06-04T04:37:28.760Z,21.80
2018-06-04T04:38:28.781Z,21.70
2018-06-04T04:39:28.789Z,21.70
2018-06-04T04:40:28.779Z,21.60
2018-06-04T04:41:28.784Z,21.60
2018-06-04T04:42:28.795Z,22.90
2018-06-04T04:43:28.798Z,22.10
2018-06-04T04:44:28.818Z,21.40
2018-06-04T04:45:28.822Z,22.30
2018-06-04T04:46:28.826Z,22.80
2018-06-04T04:47:28.828Z,22.30
2018-06-04T04:48:28.842Z,21.80
2018-06-04T04:49:28.843Z,21.70
2018-06-04T04:50:28.862Z,21.70
2018-06-04T04:51:28.861Z,21.30
2018-06-04T04:52:28.868Z,21.50
2018-06-04T04:53:28.871Z,21.10
2018-06-04T04:54:28.891Z,23.10
2018-06-04T04:55:28.890Z,21.80
2018-06-04T04:56:28.886Z,22.20
2018-06-04T04:57:28.927Z,21.50
2018-06-04T04:58:28.907Z,21.50
2018-06-04T04:59:28.908Z,21.40
2018-06-04T05:00:28.931Z,23.20
2018-06-04T05:01:29.723Z,21.90
2018-06-04T05:02:28.931Z,21.90
2018-06-04T05:03:28.949Z,21.90
2018-06-04T05:04:28.988Z,22.40
2018-06-04T05:05:28.961Z,21.50
2018-06-04T05:06:28.969Z,20.40
2018-06-04T05:07:28.967Z,21.80
2018-06-04T05:08:28.970Z,21.70
2018-06-04T05:09:28.974Z,21.40
2018-06-04T05:10:28.995Z,21.40
2018-06-04T05:11:28.989Z,21.10
2018-06-04T05:12:29.004Z,21.70
2018-06-04T05:13:29.003Z,21.30
2018-06-04T05:14:29.014Z,21.30
2018-06-04T05:15:29.017Z,20.90
2018-06-04T05:16:29.043Z,20.10
2018-06-04T05:17:29.054Z,19.60
2018-06-04T05:18:29.143Z,20.40
2018-06-04T05:19:29.093Z,21.00
2018-06-04T05:20:29.933Z,19.80
2018-06-04T05:21:31.103Z,19.70
2018-06-04T05:22:30.317Z,20.20
2018-06-04T05:23:31.238Z,18.40
2018-06-04T05:24:30.784Z,20.50
2018-06-04T05:25:29.817Z,19.90
2018-06-04T05:26:30.649Z,19.10
2018-06-04T05:27:30.119Z,18.90
2018-06-04T05:28:31.315Z,19.40
2018-06-04T05:29:31.640Z,20.10
2018-06-04T05:30:30.780Z,19.50
2018-06-04T05:31:30.882Z,19.50
2018-06-04T05:32:30.120Z,19.30
2018-06-04T05:33:29.883Z,19.40
2018-06-04T05:34:31.222Z,18.10
2018-06-04T05:35:31.123Z,18.40
2018-06-04T05:36:31.279Z,18.20
2018-06-04T05:37:31.759Z,18.80
2018-06-04T05:38:30.487Z,18.80
2018-06-04T05:39:32.372Z,18.30
2018-06-04T05:40:30.161Z,19.00
2018-06-04T05:41:31.052Z,18.30
2018-06-04T05:42:31.190Z,17.70
2018-06-04T05:43:29.632Z,18.10
2018-06-04T05:44:31.232Z,18.00
2018-06-04T05:45:31.647Z,17.90
2018-06-04T05:46:30.359Z,17.80
2018-06-04T05:47:31.908Z,17.60
2018-06-04T05:48:31.806Z,17.80
2018-06-04T05:49:32.677Z,16.80
2018-06-04T05:50:31.812Z,16.60
2018-06-04T05:51:31.817Z,17.30
2018-06-04T05:52:29.435Z,17.90
2018-06-04T05:53:29.445Z,17.40
2018-06-04T05:54:29.462Z,17.70
2018-06-04T05:55:29.475Z,17.10
2018-06-04T05:56:29.494Z,17.30
2018-06-04T05:57:29.510Z,17.90
2018-06-04T05:58:29.516Z,17.10
2018-06-04T05:59:29.542Z,17.00
2018-06-04T06:00:29.547Z,18.10
2018-06-04T06:01:29.561Z,16.70
2018-06-04T06:02:29.588Z,17.80
2018-06-04T06:03:29.595Z,17.90
2018-06-04T06:04:29.617Z,17.20
2018-06-04T06:05:29.636Z,17.30
2018-06-04T06:06:29.639Z,17.80
2018-06-04T06:07:29.665Z,17.20
2018-06-04T06:08:29.670Z,17.60
2018-06-04T06:09:29.699Z,17.30
2018-06-04T06:10:29.732Z,17.00
2018-06-04T06:11:29.725Z,18.30
2018-06-04T06:12:29.740Z,18.10
2018-06-04T06:13:29.762Z,17.20
2018-06-04T06:14:29.845Z,17.30
2018-06-04T06:15:29.792Z,17.30
2018-06-04T06:16:29.806Z,17.50
2018-06-04T06:17:29.829Z,16.80
2018-06-04T06:18:29.836Z,17.30
2018-06-04T06:19:29.864Z,17.30
2018-06-04T06:20:29.874Z,16.50
2018-06-04T06:21:29.888Z,17.70
2018-06-04T06:22:29.914Z,16.90
2018-06-04T06:23:29.928Z,16.70
2018-06-04T06:24:29.949Z,17.00
2018-06-04T06:25:30.021Z,16.70
2018-06-04T06:26:29.982Z,17.20
2018-06-04T06:27:30.001Z,16.60
2018-06-04T06:28:30.011Z,17.10
2018-06-04T06:29:30.030Z,16.50
2018-06-04T06:30:30.055Z,16.50
2018-06-04T06:31:30.073Z,17.50
2018-06-04T06:32:30.097Z,16.60
2018-06-04T06:33:30.114Z,15.90
2018-06-04T06:34:30.289Z,16.30
2018-06-04T06:35:30.142Z,16.50
2018-06-04T06:36:30.711Z,16.20
2018-06-04T06:37:30.257Z,15.80
2018-06-04T06:38:30.198Z,16.30
2018-06-04T06:39:30.215Z,16.30
2018-06-04T06:40:30.228Z,16.10
2018-06-04T06:41:30.253Z,16.00
2018-06-04T06:42:30.275Z,16.10
2018-06-04T06:43:30.293Z,17.00
2018-06-04T06:44:30.308Z,17.00
2018-06-04T06:45:30.328Z,17.00
2018-06-04T06:46:30.360Z,17.20
2018-06-04T06:47:30.365Z,16.40
2018-06-04T06:48:30.396Z,16.90
2018-06-04T06:49:30.421Z,17.10
2018-06-04T06:50:30.418Z,17.10
2018-06-04T06:51:30.445Z,17.10
2018-06-04T06:52:30.464Z,16.30
2018-06-04T06:53:30.481Z,16.20
2018-06-04T06:54:30.498Z,17.10
2018-06-04T06:55:30.575Z,16.40
2018-06-04T06:56:30.539Z,16.70
2018-06-04T06:57:30.633Z,16.20
2018-06-04T06:58:30.573Z,17.00
2018-06-04T06:59:30.605Z,17.30
2018-06-04T07:00:30.617Z,17.20
2018-06-04T07:01:30.642Z,17.30
2018-06-04T07:02:30.865Z,16.10
2018-06-04T07:03:30.680Z,16.60
2018-06-04T07:04:30.715Z,17.00
2018-06-04T07:05:30.719Z,17.20
2018-06-04T07:06:30.773Z,17.20
2018-06-04T07:07:30.770Z,17.00
2018-06-04T07:08:30.786Z,16.90
2018-06-04T07:09:30.804Z,17.30
2018-06-04T07:10:30.815Z,16.40
2018-06-04T07:11:30.842Z,16.80
2018-06-04T07:12:30.859Z,16.10
2018-06-04T07:13:30.879Z,17.10
2018-06-04T07:14:30.952Z,16.20
2018-06-04T07:15:31.731Z,15.60
2018-06-04T07:16:30.944Z,16.10
2018-06-04T07:17:30.962Z,17.10
2018-06-04T07:18:30.995Z,17.60
2018-06-04T07:19:31.693Z,17.00
2018-06-04T07:20:31.046Z,16.70
2018-06-04T07:21:31.135Z,16.80
2018-06-04T07:22:31.074Z,16.60
2018-06-04T07:23:31.093Z,17.10
2018-06-04T07:24:31.114Z,16.70
2018-06-04T07:25:31.138Z,16.40
2018-06-04T07:26:31.169Z,16.10
2018-06-04T07:27:31.177Z,16.20
2018-06-04T07:28:31.202Z,16.00
2018-06-04T07:29:31.228Z,16.20
2018-06-04T07:30:31.239Z,15.90
2018-06-04T07:31:31.270Z,15.90
2018-06-04T07:32:31.282Z,16.20
2018-06-04T07:33:31.326Z,16.60
2018-06-04T07:34:31.332Z,15.70
2018-06-04T07:35:31.360Z,16.40
2018-06-04T07:36:31.453Z,15.60
2018-06-04T07:37:31.461Z,16.10
2018-06-04T07:39:31.504Z,14.80
2018-06-04T07:40:31.541Z,15.40
2018-06-04T07:41:31.575Z,17.10
2018-06-04T07:42:31.508Z,15.70
2018-06-04T07:43:32.243Z,16.20
2018-06-04T07:44:31.610Z,15.40
2018-06-04T07:45:31.585Z,15.50
2018-06-04T07:46:31.602Z,15.50
2018-06-04T07:47:31.622Z,16.50
2018-06-04T07:48:31.641Z,17.20
2018-06-04T07:49:31.659Z,16.60
2018-06-04T07:50:32.424Z,17.20
2018-06-04T07:51:31.711Z,16.80
2018-06-04T07:52:31.733Z,16.10
2018-06-04T07:53:31.760Z,16.20
2018-06-04T07:54:31.779Z,16.80
2018-06-04T07:55:31.808Z,16.60
2018-06-04T07:56:31.824Z,16.90
2018-06-04T07:57:31.866Z,17.60
2018-06-04T07:58:31.871Z,16.40
2018-06-04T07:59:31.891Z,16.70
2018-06-04T08:00:31.924Z,15.90
2018-06-04T08:01:31.946Z,16.80
2018-06-04T08:02:31.966Z,17.10
2018-06-04T08:03:31.996Z,16.90
2018-06-04T08:04:32.010Z,18.40
2018-06-04T08:05:32.042Z,18.10
2018-06-04T08:06:32.070Z,17.30
2018-06-04T08:07:32.090Z,17.00
2018-06-04T08:08:32.105Z,16.70
2018-06-04T08:09:32.132Z,16.80
2018-06-04T08:10:32.152Z,17.40
2018-06-04T08:11:32.180Z,16.60
2018-06-04T08:12:32.203Z,16.00
2018-06-04T08:13:32.224Z,15.80
2018-06-04T08:14:32.248Z,15.20
2018-06-04T08:15:32.274Z,14.70
2018-06-04T08:16:32.299Z,15.70
2018-06-04T08:17:32.318Z,16.50
2018-06-04T08:18:32.353Z,16.30
2018-06-04T08:19:32.415Z,17.80
2018-06-04T08:20:32.397Z,17.20
2018-06-04T08:21:33.255Z,16.40
2018-06-04T08:22:32.444Z,17.20
2018-06-04T08:23:32.475Z,16.90
2018-06-04T08:24:32.491Z,15.30
2018-06-04T08:25:32.524Z,16.00
2018-06-04T08:26:32.539Z,16.30
2018-06-04T08:27:32.572Z,16.20
2018-06-04T08:28:32.609Z,15.60
2018-06-04T08:29:32.612Z,15.50
2018-06-04T08:30:32.639Z,15.10
2018-06-04T08:31:32.755Z,13.70
2018-06-04T08:32:32.918Z,14.60
2018-06-04T08:33:32.716Z,15.10
2018-06-04T08:34:32.846Z,16.20
2018-06-04T08:35:32.757Z,15.30
2018-06-04T08:36:32.782Z,14.70
2018-06-04T08:37:32.807Z,15.70
2018-06-04T08:39:32.893Z,16.10
2018-06-04T08:42:15.053Z,15.90
